Time;durP1;ratioP1;P1;durP2;ratioP2;P2;SDS_P1;SDS_P2;PMS_P1;PMS_P2;Temp;Humidity;BMP_temperature;BMP_pressure;BME280_temperature;BME280_humidity;BME280_pressure;Samples;Min_cycle;Max_cycle;Signal;HPM_P1;HPM_P2
2022/07/25 00:04:32;;;;;;;0.10;0.10;;;;;;;17.09;100.00;101233.41;10424905;28;20080;-74
2022/07/25 00:09:32;;;;;;;0.10;0.10;;;;;;;16.98;100.00;101217.75;10448467;28;20035;-74
2022/07/25 00:14:32;;;;;;;0.00;0.00;;;;;;;16.95;100.00;101220.84;10421899;28;20487;-74
2022/07/25 00:19:33;;;;;;;0.10;0.10;;;;;;;16.93;100.00;101209.47;10418370;28;20021;-74
2022/07/25 00:24:33;;;;;;;0.10;0.10;;;;;;;16.89;100.00;101202.78;10436535;28;20582;-74
2022/07/25 00:29:34;;;;;;;0.00;0.00;;;;;;;16.82;100.00;101208.09;10444403;28;20052;-74
2022/07/25 00:34:35;;;;;;;0.00;0.00;;;;;;;16.76;100.00;101192.72;10434593;28;20143;-72
2022/07/25 00:39:35;;;;;;;0.10;0.10;;;;;;;16.96;100.00;101183.00;10434495;28;20386;-73
2022/07/25 00:44:36;;;;;;;0.10;0.10;;;;;;;17.49;100.00;101174.53;10438344;28;20287;-73
2022/07/25 00:49:36;;;;;;;0.10;0.10;;;;;;;17.94;100.00;101182.28;10419814;28;20096;-73
2022/07/25 00:54:36;;;;;;;0.00;0.00;;;;;;;18.16;100.00;101181.16;10440203;28;20039;-73
2022/07/25 00:59:37;;;;;;;0.00;0.00;;;;;;;18.24;100.00;101188.25;10438691;28;20017;-74
2022/07/25 01:04:37;;;;;;;0.10;0.10;;;;;;;18.33;100.00;101181.66;10448808;28;20029;-74
2022/07/25 01:09:37;;;;;;;0.10;0.10;;;;;;;18.38;100.00;101181.88;10431538;28;20017;-74
2022/07/25 01:14:38;;;;;;;0.00;0.00;;;;;;;18.40;100.00;101177.09;10449100;28;20015;-74
2022/07/25 01:19:38;;;;;;;0.10;0.10;;;;;;;18.08;100.00;101162.47;10423570;28;20044;-74
2022/07/25 01:24:38;;;;;;;0.10;0.10;;;;;;;17.56;100.00;101166.47;10442511;28;20025;-74
2022/07/25 01:29:39;;;;;;;0.00;0.00;;;;;;;17.16;100.00;101158.09;10453823;28;20033;-74
2022/07/25 01:34:39;;;;;;;0.10;0.10;;;;;;;16.94;100.00;101150.06;10425389;28;20479;-74
2022/07/25 01:39:39;;;;;;;0.10;0.10;;;;;;;16.82;100.00;101151.59;10434157;28;20071;-74
2022/07/25 01:44:40;;;;;;;0.10;0.10;;;;;;;16.81;100.00;101138.31;10422091;28;20032;-74
2022/07/25 01:49:40;;;;;;;0.10;0.10;;;;;;;17.13;100.00;101127.03;10436225;28;20021;-74
2022/07/25 01:54:40;;;;;;;0.00;0.00;;;;;;;17.50;100.00;101111.53;10431249;28;20384;-74
2022/07/25 01:59:41;;;;;;;0.10;0.10;;;;;;;17.83;100.00;101110.91;10432721;28;20024;-74
2022/07/25 02:04:41;;;;;;;0.10;0.10;;;;;;;18.14;100.00;101107.75;10433038;28;20017;-74
2022/07/25 02:09:41;;;;;;;0.00;0.00;;;;;;;18.47;100.00;101107.00;10432558;28;20021;-74
2022/07/25 02:14:42;;;;;;;0.10;0.10;;;;;;;18.73;100.00;101100.81;10435002;28;20380;-74
2022/07/25 02:19:43;;;;;;;0.10;0.10;;;;;;;18.80;100.00;101101.69;10440237;28;20069;-74
2022/07/25 02:24:43;;;;;;;0.10;0.10;;;;;;;18.83;100.00;101085.09;10405829;28;20428;-72
2022/07/25 02:29:43;;;;;;;0.00;0.00;;;;;;;18.92;100.00;101080.31;10423410;28;20031;-74
2022/07/25 02:34:44;;;;;;;0.10;0.10;;;;;;;18.92;100.00;101056.84;10442780;28;20029;-73
2022/07/25 02:39:44;;;;;;;0.10;0.10;;;;;;;18.95;100.00;101059.13;10426261;28;20036;-74
2022/07/25 02:44:44;;;;;;;0.10;0.10;;;;;;;18.99;100.00;101051.44;10409884;28;20108;-72
2022/07/25 02:49:45;;;;;;;0.10;0.10;;;;;;;19.02;100.00;101048.31;10410043;28;20032;-74
2022/07/25 02:54:45;;;;;;;0.10;0.10;;;;;;;19.08;100.00;101054.75;10410754;28;20025;-73
2022/07/25 02:59:45;;;;;;;0.10;0.10;;;;;;;19.05;100.00;101044.38;10409666;28;20125;-74
2022/07/25 03:04:46;;;;;;;0.00;0.00;;;;;;;19.01;100.00;101041.25;10409000;28;20022;-73
2022/07/25 03:09:46;;;;;;;0.10;0.10;;;;;;;18.94;100.00;101032.34;10409324;28;20031;-74
2022/07/25 03:14:46;;;;;;;0.10;0.10;;;;;;;18.90;100.00;101026.53;10409489;28;20022;-74
2022/07/25 03:19:47;;;;;;;0.10;0.10;;;;;;;18.92;100.00;101026.31;10421042;28;20029;-74
2022/07/25 03:24:47;;;;;;;0.10;0.10;;;;;;;18.91;100.00;101025.50;10427350;28;20021;-74
2022/07/25 03:29:47;;;;;;;0.10;0.10;;;;;;;18.91;100.00;101009.31;10431399;28;20025;-74
2022/07/25 03:34:47;;;;;;;0.10;0.10;;;;;;;18.92;100.00;100999.34;10435628;28;20036;-74
2022/07/25 03:39:48;;;;;;;0.00;0.00;;;;;;;19.11;100.00;100995.78;10420068;28;20040;-74
2022/07/25 03:44:48;;;;;;;0.10;0.10;;;;;;;19.46;100.00;100987.38;10430086;28;20110;-73
2022/07/25 03:49:49;;;;;;;0.10;0.10;;;;;;;19.93;98.35;100979.06;10431800;28;20408;-74
2022/07/25 03:54:49;;;;;;;0.00;0.00;;;;;;;20.43;94.26;100971.00;10446944;23;20462;-74
2022/07/25 03:59:49;;;;;;;0.00;0.00;;;;;;;20.70;90.07;100972.44;10435172;28;20029;-74
2022/07/25 04:04:50;;;;;;;0.10;0.10;;;;;;;21.03;88.57;100964.00;10418937;28;20115;-74
2022/07/25 04:09:50;;;;;;;0.00;0.00;;;;;;;21.33;86.92;100955.13;10445874;28;20079;-74
2022/07/25 04:14:51;;;;;;;0.00;0.00;;;;;;;21.35;87.94;100949.44;10431713;28;20060;-74
2022/07/25 04:19:51;;;;;;;0.10;0.10;;;;;;;21.19;88.14;100942.78;10435270;28;20579;-75
2022/07/25 04:24:52;;;;;;;0.10;0.10;;;;;;;20.86;89.04;100929.63;10437811;28;20041;-73
2022/07/25 04:29:52;;;;;;;0.00;0.00;;;;;;;20.75;91.16;100921.19;10431721;28;20026;-74
2022/07/25 04:34:54;;;;;;;0.00;0.00;;;;;;;20.86;90.46;100919.63;10430517;28;20027;-74
2022/07/25 04:39:54;;;;;;;0.00;0.00;;;;;;;21.19;89.12;100910.28;10442110;28;20033;-74
2022/07/25 04:44:54;;;;;;;0.00;0.00;;;;;;;21.49;87.28;100910.31;10440555;28;20082;-75
2022/07/25 04:49:55;;;;;;;0.00;0.00;;;;;;;21.24;86.94;100899.59;10435430;28;20020;-75
2022/07/25 04:54:55;;;;;;;0.00;0.00;;;;;;;21.41;86.98;100881.69;10433805;28;20558;-75
2022/07/25 04:59:55;;;;;;;0.00;0.00;;;;;;;22.50;81.93;100881.41;10445781;28;20025;-75
2022/07/25 05:04:56;;;;;;;0.00;0.00;;;;;;;23.31;78.33;100875.25;10437111;28;20032;-76
2022/07/25 05:09:56;;;;;;;0.00;0.00;;;;;;;23.54;76.68;100874.34;10431861;28;20307;-75
2022/07/25 05:14:56;;;;;;;0.00;0.00;;;;;;;24.30;76.20;100867.47;10439883;28;20029;-75
2022/07/25 05:19:57;;;;;;;0.00;0.00;;;;;;;24.98;69.83;100867.31;10437963;28;20029;-75
2022/07/25 05:24:58;;;;;;;0.00;0.00;;;;;;;25.34;65.14;100851.38;10435394;28;20032;-75
2022/07/25 05:29:58;;;;;;;0.00;0.00;;;;;;;25.07;65.29;100854.88;10441272;28;20154;-76
2022/07/25 05:34:58;;;;;;;0.00;0.00;;;;;;;25.01;66.50;100847.72;10432096;28;20171;-76
2022/07/25 05:39:59;;;;;;;0.10;0.10;;;;;;;25.40;63.82;100847.66;10427070;28;20104;-75
2022/07/25 05:45:00;;;;;;;0.00;0.00;;;;;;;26.37;62.32;100848.47;10432371;28;20395;-76
2022/07/25 05:50:00;;;;;;;0.00;0.00;;;;;;;25.80;63.04;100836.28;10420844;28;20021;-75
2022/07/25 05:55:00;;;;;;;0.10;0.10;;;;;;;25.81;64.11;100832.47;10420129;28;20130;-76
2022/07/25 06:00:03;;;;;;;0.00;0.00;;;;;;;25.42;64.48;100838.13;10420161;28;20790;-76
2022/07/25 06:05:04;;;;;;;0.10;0.10;;;;;;;26.18;62.65;100827.06;10417141;28;20029;-76
2022/07/25 06:10:05;;;;;;;0.00;0.00;;;;;;;27.51;58.48;100822.13;10418117;28;20037;-74
2022/07/25 06:15:05;;;;;;;0.10;0.10;;;;;;;27.65;57.87;100816.13;10419025;28;20044;-73
2022/07/25 06:20:06;;;;;;;0.10;0.10;;;;;;;27.74;58.53;100822.69;10421244;28;20025;-74
2022/07/25 06:25:07;;;;;;;0.10;0.10;;;;;;;28.17;59.45;100818.56;10426111;28;20033;-74
2022/07/25 06:30:11;;;;;;;0.10;0.10;;;;;;;27.59;59.82;100814.47;10425933;28;20045;-74
2022/07/25 06:35:11;;;;;;;0.10;0.10;;;;;;;27.27;60.60;100818.28;10421637;28;20025;-74
2022/07/25 06:40:12;;;;;;;0.10;0.10;;;;;;;27.16;61.98;100811.94;10415159;28;20021;-74
2022/07/25 06:45:14;;;;;;;0.10;0.10;;;;;;;28.09;57.58;100812.81;10420716;28;20022;-73
2022/07/25 06:50:15;;;;;;;;;;;;;;;28.35;58.37;100797.97;10416995;28;20026;-74
2022/07/25 06:55:15;;;;;;;0.10;0.10;;;;;;;28.36;57.32;100798.78;10417936;28;19909;-76
2022/07/25 07:00:16;;;;;;;0.10;0.10;;;;;;;28.42;57.26;100792.22;10414019;28;20026;-75
2022/07/25 07:05:17;;;;;;;0.10;0.10;;;;;;;28.98;57.07;100786.50;10413350;28;20029;-76
2022/07/25 07:10:17;;;;;;;0.03;0.03;;;;;;;29.64;54.07;100784.41;10418276;28;20026;-75
2022/07/25 07:15:17;;;;;;;0.10;0.10;;;;;;;30.11;55.12;100780.97;10416908;28;20017;-75
2022/07/25 07:20:18;;;;;;;0.10;0.10;;;;;;;30.02;52.51;100779.97;10439587;28;20029;-75
2022/07/25 07:25:20;;;;;;;0.10;0.10;;;;;;;30.22;51.84;100770.69;10430674;28;20027;-76
2022/07/25 07:30:20;;;;;;;0.10;0.10;;;;;;;30.17;52.95;100746.81;10431220;28;20017;-76
2022/07/25 07:35:20;;;;;;;0.10;0.10;;;;;;;29.85;52.68;100747.44;10428028;28;20468;-75
2022/07/25 07:40:22;;;;;;;0.07;0.07;;;;;;;29.89;53.77;100739.44;10422581;28;20029;-75
2022/07/25 07:45:23;;;;;;;0.10;0.10;;;;;;;29.87;52.81;100738.91;10422213;28;20056;-77
2022/07/25 07:50:26;;;;;;;0.10;0.10;;;;;;;30.37;55.78;100729.31;10421686;28;20120;-75
2022/07/25 07:55:44;;;;;;;0.10;0.10;;;;;;;31.33;51.51;100728.22;10427543;28;20044;-75
2022/07/25 08:00:47;;;;;;;0.10;0.10;;;;;;;32.39;51.95;100708.06;10432783;28;20025;-75
2022/07/25 08:05:48;;;;;;;0.10;0.10;;;;;;;33.08;45.28;100707.91;10422445;28;20022;-76
2022/07/25 08:10:48;;;;;;;0.10;0.10;;;;;;;33.36;47.73;100705.81;10423037;28;20025;-76
2022/07/25 08:15:51;;;;;;;;;;;;;;;32.87;44.06;100696.53;10424711;28;20033;-77
2022/07/25 08:20:52;;;;;;;0.10;0.10;;;;;;;32.01;49.15;100697.25;10425897;28;20337;-76
2022/07/25 08:25:53;;;;;;;0.10;0.10;;;;;;;31.99;50.73;100690.44;10423026;28;20141;-76
2022/07/25 08:30:53;;;;;;;0.10;0.10;;;;;;;31.65;51.13;100685.28;10419985;28;20540;-76
2022/07/25 08:35:54;;;;;;;0.10;0.10;;;;;;;30.94;51.62;100681.81;10415780;28;20169;-74
2022/07/25 08:40:55;;;;;;;;;;;;;;;30.64;53.11;100684.69;10424074;28;20029;-74
2022/07/25 08:45:58;;;;;;;;;;;;;;;30.32;55.87;100692.84;10422084;28;20348;-75
2022/07/25 08:51:01;;;;;;;0.10;0.10;;;;;;;30.67;56.46;100678.59;10414644;28;19999;-75
2022/07/25 08:56:06;;;;;;;0.10;0.10;;;;;;;32.00;55.16;100686.56;10425269;28;20024;-74
2022/07/25 09:01:07;;;;;;;0.10;0.10;;;;;;;32.29;48.44;100677.97;10417779;28;20118;-75
2022/07/25 09:06:15;;;;;;;0.10;0.10;;;;;;;31.99;50.80;100668.38;10448481;28;20501;-76
2022/07/25 09:11:34;;;;;;;0.10;0.10;;;;;;;31.94;50.90;100663.81;10452480;28;20127;-76
2022/07/25 09:16:37;;;;;;;0.10;0.10;;;;;;;32.06;52.58;100659.69;10426944;28;20057;-75
2022/07/25 09:21:39;;;;;;;0.10;0.10;;;;;;;32.29;52.67;100655.91;10418608;28;20032;-76
2022/07/25 09:27:00;;;;;;;0.10;0.10;;;;;;;32.30;51.02;100660.28;10419546;28;20028;-76
2022/07/25 09:32:16;;;;;;;0.03;0.03;;;;;;;32.75;52.86;100651.31;10409987;28;20026;-75
2022/07/25 09:37:18;;;;;;;0.10;0.10;;;;;;;33.17;51.44;100647.25;10411610;28;20018;-75
2022/07/25 09:42:25;;;;;;;0.10;0.10;;;;;;;33.59;52.09;100645.06;10410363;28;20018;-76
2022/07/25 09:47:26;;;;;;;0.10;0.10;;;;;;;33.77;47.95;100637.66;10411798;28;20026;-75
2022/07/25 09:52:27;;;;;;;0.10;0.10;;;;;;;33.41;48.94;100632.28;10421278;28;20056;-75
2022/07/25 09:57:27;;;;;;;0.10;0.10;;;;;;;32.94;48.37;100629.88;10426210;28;20116;-76
2022/07/25 10:02:45;;;;;;;0.10;0.10;;;;;;;32.33;50.10;100634.06;10410333;28;20056;-76
2022/07/25 10:07:49;;;;;;;0.10;0.10;;;;;;;31.92;53.16;100645.97;10451143;28;20021;-77
2022/07/25 10:13:29;;;;;;;0.10;0.10;;;;;;;31.74;56.09;100633.91;10448605;28;20565;-75
2022/07/25 10:18:29;;;;;;;;;;;;;;;31.68;54.92;100629.59;10421458;28;20079;-74
2022/07/25 10:23:30;;;;;;;0.10;0.10;;;;;;;31.53;54.49;100625.22;10425507;28;19931;-76
2022/07/25 10:28:40;;;;;;;0.10;0.10;;;;;;;31.63;57.94;100626.97;10410148;28;20022;-75
2022/07/25 10:33:41;;;;;;;0.10;0.10;;;;;;;31.65;56.89;100624.69;10425221;28;20033;-76
2022/07/25 10:38:44;;;;;;;0.10;0.10;;;;;;;32.33;58.09;100617.53;10414149;28;20020;-75
2022/07/25 10:43:47;;;;;;;0.10;0.10;;;;;;;32.73;51.63;100618.53;10410830;28;20117;-76
2022/07/25 10:49:05;;;;;;;0.10;0.10;;;;;;;32.64;52.35;100620.44;10408673;28;20403;-77
2022/07/25 10:54:14;;;;;;;0.10;0.10;;;;;;;32.47;53.00;100608.13;10425871;28;20037;-75
2022/07/25 10:59:34;;;;;;;0.10;0.10;;;;;;;32.60;53.32;100600.91;10455160;28;20025;-76
2022/07/25 11:04:35;;;;;;;;;;;;;;;33.22;50.79;100610.41;10457850;28;20021;-75
2022/07/25 11:09:37;;;;;;;0.10;0.10;;;;;;;33.58;52.33;100600.06;10457454;28;19908;-76
2022/07/25 11:14:42;;;;;;;0.10;0.10;;;;;;;33.86;45.52;100591.53;10441133;28;20021;-75
2022/07/25 11:19:44;;;;;;;0.10;0.10;;;;;;;33.85;44.54;100586.34;10416625;28;20124;-76
2022/07/25 11:24:46;;;;;;;0.10;0.10;;;;;;;34.00;47.47;100592.19;10423545;28;20514;-78
2022/07/25 11:29:47;;;;;;;0.10;0.10;;;;;;;34.21;43.88;100597.13;10415280;28;20030;-76
2022/07/25 11:34:48;;;;;;;;;;;;;;;34.58;45.34;100579.09;10423283;28;20383;-76
2022/07/25 11:39:49;;;;;;;0.10;0.10;;;;;;;34.79;43.33;100578.44;10452900;28;20360;-75
2022/07/25 11:44:51;;;;;;;;;;;;;;;35.00;46.85;100571.06;10422220;28;20017;-76
2022/07/25 11:49:53;;;;;;;0.10;0.10;;;;;;;34.49;42.00;100558.91;10417658;28;19909;-76
2022/07/25 11:54:56;;;;;;;0.10;0.10;;;;;;;34.42;41.71;100547.56;10425145;28;20115;-75
2022/07/25 11:59:59;;;;;;;0.10;0.10;;;;;;;34.14;42.19;100542.34;10439203;28;20493;-75
2022/07/25 12:05:00;;;;;;;0.10;0.10;;;;;;;33.76;42.95;100542.13;10453490;28;20032;-76
2022/07/25 12:10:00;;;;;;;0.10;0.10;;;;;;;33.51;44.05;100529.84;10426292;28;20405;-76
2022/07/25 12:15:00;;;;;;;;;;;;;;;33.56;43.48;100544.34;10429324;28;20021;-76
2022/07/25 12:20:01;;;;;;;0.08;0.08;;;;;;;33.65;43.39;100549.88;10417872;28;20253;-76
2022/07/25 12:25:01;;;;;;;0.10;0.10;;;;;;;33.34;43.18;100545.22;10421195;28;20029;-76
2022/07/25 12:30:02;;;;;;;;;;;;;;;32.77;44.30;100549.78;10413464;28;20021;-76
2022/07/25 12:35:04;;;;;;;0.10;0.10;;;;;;;31.98;45.69;100551.88;10412363;28;20420;-76
2022/07/25 12:40:05;;;;;;;0.10;0.10;;;;;;;31.26;45.88;100554.44;10413804;28;20028;-79
2022/07/25 12:45:07;;;;;;;0.10;0.10;;;;;;;30.68;48.81;100556.50;10416614;28;20036;-75
2022/07/25 12:50:07;;;;;;;0.10;0.10;;;;;;;30.23;49.02;100560.81;10415484;28;20040;-78
2022/07/25 12:55:11;;;;;;;0.10;0.10;;;;;;;30.05;53.54;100564.31;10426946;28;20029;-76
2022/07/25 13:00:14;;;;;;;0.10;0.10;;;;;;;30.20;54.58;100564.13;10413666;28;20073;-77
2022/07/25 13:05:15;;;;;;;0.10;0.10;;;;;;;30.23;54.97;100564.38;10413174;28;20080;-75
2022/07/25 13:10:16;;;;;;;0.10;0.10;;;;;;;30.20;55.29;100567.69;10437471;28;20089;-75
2022/07/25 13:15:19;;;;;;;0.10;0.10;;;;;;;30.26;55.54;100562.97;10411974;28;20074;-77
2022/07/25 13:20:19;;;;;;;0.10;0.10;;;;;;;30.33;56.92;100570.81;10414566;28;20396;-76
2022/07/25 13:25:19;;;;;;;0.10;0.10;;;;;;;30.68;57.05;100573.00;10416527;28;20024;-76
2022/07/25 13:30:20;;;;;;;0.00;0.00;;;;;;;30.81;58.04;100584.41;10409617;28;20017;-77
2022/07/25 13:35:20;;;;;;;0.10;0.10;;;;;;;28.53;66.36;100604.78;10447047;28;20025;-77
2022/07/25 13:40:21;;;;;;;0.10;0.10;;;;;;;27.25;69.94;100609.91;10450061;28;20021;-75
2022/07/25 13:45:21;;;;;;;0.10;0.10;;;;;;;26.58;71.52;100626.25;10451161;28;20472;-76
2022/07/25 13:50:21;;;;;;;0.10;0.10;;;;;;;26.40;67.79;100629.47;10446626;28;20539;-76
2022/07/25 13:55:22;;;;;;;0.10;0.10;;;;;;;26.12;67.65;100628.84;10418432;28;20396;-76
2022/07/25 14:00:23;;;;;;;0.10;0.10;;;;;;;25.84;70.16;100635.53;10413478;28;20100;-75
2022/07/25 14:05:23;;;;;;;0.10;0.10;;;;;;;25.90;70.75;100636.41;10409049;28;20104;-76
2022/07/25 14:10:23;;;;;;;0.00;0.00;;;;;;;25.67;72.24;100648.50;10413279;28;20071;-75
2022/07/25 14:15:24;;;;;;;0.10;0.10;;;;;;;25.23;74.65;100638.69;10432423;28;20057;-75
2022/07/25 14:20:24;;;;;;;0.10;0.10;;;;;;;24.93;78.34;100658.31;10413729;28;20260;-75
2022/07/25 14:25:24;;;;;;;0.10;0.10;;;;;;;24.79;80.25;100671.50;10414940;28;20014;-78
2022/07/25 14:30:25;;;;;;;0.10;0.10;;;;;;;24.42;81.36;100687.69;10448925;28;20021;-76
2022/07/25 14:35:26;;;;;;;0.10;0.10;;;;;;;24.24;83.63;100701.63;10408796;28;20066;-76
2022/07/25 14:40:26;;;;;;;0.00;0.00;;;;;;;23.89;85.48;100705.53;10410946;28;20178;-76
2022/07/25 14:45:27;;;;;;;0.03;0.03;;;;;;;23.63;88.36;100688.78;10410230;28;20028;-76
2022/07/25 14:50:27;;;;;;;0.10;0.10;;;;;;;23.18;94.38;100705.19;10410658;28;21370;-76
2022/07/25 14:55:27;;;;;;;0.00;0.00;;;;;;;22.66;100.00;100719.72;10432912;28;20373;-77
2022/07/25 15:00:28;;;;;;;0.10;0.10;;;;;;;22.36;100.00;100719.91;10489076;28;20021;-75
2022/07/25 15:05:29;;;;;;;0.10;0.10;;;;;;;21.93;100.00;100735.53;10492424;28;20039;-75
2022/07/25 15:10:29;;;;;;;0.10;0.10;;;;;;;21.51;100.00;100726.66;10493037;28;20021;-74
2022/07/25 15:15:30;;;;;;;0.00;0.00;;;;;;;21.00;100.00;100717.19;10492779;28;20031;-74
2022/07/25 15:20:31;;;;;;;0.10;0.10;;;;;;;20.74;100.00;100713.81;10490541;28;20027;-75
2022/07/25 15:25:31;;;;;;;0.10;0.10;;;;;;;20.44;100.00;100721.03;10458953;28;20361;-74
2022/07/25 15:30:32;;;;;;;0.00;0.00;;;;;;;20.35;100.00;100693.47;10450419;28;20267;-74
2022/07/25 15:35:32;;;;;;;0.00;0.00;;;;;;;20.58;100.00;100720.69;10449574;28;20082;-75
2022/07/25 15:40:32;;;;;;;0.00;0.00;;;;;;;21.03;100.00;100719.44;10455737;28;20430;-74
2022/07/25 15:45:38;;;;;;;0.10;0.10;;;;;;;21.42;100.00;100714.50;10457215;28;20024;-75
2022/07/25 15:50:42;;;;;;;0.00;0.00;;;;;;;21.69;100.00;100734.66;10457056;28;20040;-75
2022/07/25 15:55:43;;;;;;;0.00;0.00;;;;;;;21.67;100.00;100733.25;10480539;22;20078;-74
2022/07/25 16:00:43;;;;;;;0.00;0.00;;;;;;;21.48;100.00;100744.19;10457001;28;20075;-75
2022/07/25 16:05:44;;;;;;;0.10;0.10;;;;;;;21.16;100.00;100757.16;10456230;28;20021;-74
2022/07/25 16:10:44;;;;;;;0.00;0.00;;;;;;;21.11;100.00;100748.09;10456576;28;20028;-74
2022/07/25 16:15:44;;;;;;;0.00;0.00;;;;;;;21.07;100.00;100772.09;10456055;28;20017;-74
2022/07/25 16:20:45;;;;;;;0.00;0.00;;;;;;;21.17;100.00;100766.13;10456507;28;20039;-74
2022/07/25 16:25:45;;;;;;;0.00;0.00;;;;;;;21.34;100.00;100783.38;10472821;28;20017;-74
2022/07/25 16:30:46;;;;;;;0.00;0.00;;;;;;;21.50;100.00;100773.78;10456442;28;20476;-74
2022/07/25 16:35:46;;;;;;;0.10;0.10;;;;;;;21.59;100.00;100775.09;10455288;28;20017;-74
2022/07/25 16:40:47;;;;;;;0.00;0.00;;;;;;;21.55;100.00;100781.19;10453290;28;20082;-74
2022/07/25 16:45:47;;;;;;;0.00;0.00;;;;;;;21.43;100.00;100782.00;10455206;28;20827;-74
2022/07/25 16:50:47;;;;;;;0.07;0.07;;;;;;;21.34;100.00;100785.25;10453324;28;20115;-74
2022/07/25 16:55:48;;;;;;;0.00;0.00;;;;;;;21.23;100.00;100786.84;10451281;28;20537;-74
2022/07/25 17:00:48;;;;;;;0.00;0.00;;;;;;;21.07;100.00;100790.22;10451114;28;20091;-74
2022/07/25 17:05:50;;;;;;;0.00;0.00;;;;;;;20.95;100.00;100790.19;10451408;28;20029;-74
2022/07/25 17:10:51;;;;;;;0.00;0.00;;;;;;;20.90;100.00;100795.44;10451581;28;20119;-74
2022/07/25 17:15:51;;;;;;;0.10;0.10;;;;;;;20.88;100.00;100795.66;10452412;28;20539;-74
2022/07/25 17:20:53;;;;;;;0.00;0.00;;;;;;;20.90;100.00;100800.88;10452206;28;20028;-74
2022/07/25 17:25:54;;;;;;;0.10;0.10;;;;;;;20.94;100.00;100802.06;10454285;28;20021;-74
2022/07/25 17:30:54;;;;;;;0.10;0.10;;;;;;;21.05;100.00;100808.59;10452283;28;20029;-74
2022/07/25 17:35:54;;;;;;;0.00;0.00;;;;;;;21.07;100.00;100801.88;10449788;28;20025;-75
2022/07/25 17:40:55;;;;;;;0.10;0.10;;;;;;;21.00;100.00;100801.97;10451033;28;20147;-74
2022/07/25 17:45:55;;;;;;;0.10;0.10;;;;;;;20.87;100.00;100804.03;10451343;28;20024;-74
2022/07/25 17:50:55;;;;;;;0.10;0.10;;;;;;;20.72;100.00;100818.78;10450183;28;20407;-74
2022/07/25 17:55:56;;;;;;;0.05;0.05;;;;;;;20.58;100.00;100812.69;10452871;28;20117;-74
2022/07/25 18:00:56;;;;;;;0.00;0.00;;;;;;;20.50;100.00;100804.00;10450250;28;20025;-75
2022/07/25 18:05:56;;;;;;;0.00;0.00;;;;;;;20.46;100.00;100800.09;10449592;28;20032;-75
2022/07/25 18:10:57;;;;;;;0.10;0.10;;;;;;;20.48;100.00;100806.13;10451228;28;20329;-75
2022/07/25 18:15:57;;;;;;;0.10;0.10;;;;;;;20.52;100.00;100807.31;10450732;28;20056;-75
2022/07/25 18:20:58;;;;;;;0.00;0.00;;;;;;;20.62;100.00;100804.13;10451296;28;20086;-75
2022/07/25 18:25:58;;;;;;;0.10;0.10;;;;;;;20.69;100.00;100805.69;10450876;28;20495;-75
2022/07/25 18:30:58;;;;;;;0.10;0.10;;;;;;;20.65;100.00;100806.38;10451337;28;20025;-75
2022/07/25 18:35:59;;;;;;;0.10;0.10;;;;;;;20.55;100.00;100809.59;10450784;28;20054;-75
2022/07/25 18:40:59;;;;;;;0.10;0.10;;;;;;;20.70;100.00;100810.03;10451029;28;20020;-75
2022/07/25 18:46:00;;;;;;;0.10;0.10;;;;;;;20.65;100.00;100817.19;10450736;28;20431;-75
2022/07/25 18:51:00;;;;;;;0.00;0.00;;;;;;;20.46;100.00;100824.47;10451072;28;20020;-74
2022/07/25 18:56:03;;;;;;;0.10;0.10;;;;;;;20.26;100.00;100814.66;10452334;28;20025;-75
2022/07/25 19:01:03;;;;;;;0.00;0.00;;;;;;;20.10;100.00;100816.06;10449077;28;20076;-75
2022/07/25 19:06:06;;;;;;;0.00;0.00;;;;;;;20.09;100.00;100821.69;10450205;28;20053;-74
2022/07/25 19:11:07;;;;;;;0.00;0.00;;;;;;;20.07;100.00;100827.34;10448721;28;20030;-75
2022/07/25 19:16:11;;;;;;;0.10;0.10;;;;;;;19.93;100.00;100824.97;10457230;28;20025;-75
2022/07/25 19:21:12;;;;;;;0.10;0.10;;;;;;;19.79;100.00;100835.88;10458295;28;20124;-75
2022/07/25 19:26:12;;;;;;;0.00;0.00;;;;;;;19.67;100.00;100838.47;10456837;28;20109;-75
2022/07/25 19:31:13;;;;;;;0.00;0.00;;;;;;;19.59;100.00;100845.97;10456817;28;20546;-74
2022/07/25 19:36:13;;;;;;;0.00;0.00;;;;;;;19.49;100.00;100851.88;10457591;28;20021;-75
2022/07/25 19:41:14;;;;;;;0.00;0.00;;;;;;;19.34;100.00;100871.03;10456023;28;20037;-74
2022/07/25 19:46:14;;;;;;;0.00;0.00;;;;;;;19.14;100.00;100881.97;10455999;28;20070;-74
2022/07/25 19:51:14;;;;;;;0.10;0.10;;;;;;;18.94;100.00;100881.22;10456694;28;20475;-74
2022/07/25 19:56:15;;;;;;;0.10;0.10;;;;;;;18.76;100.00;100876.47;10461334;28;20021;-74
2022/07/25 20:01:16;;;;;;;0.10;0.10;;;;;;;18.59;100.00;100880.63;10457136;28;20036;-74
2022/07/25 20:06:19;;;;;;;0.03;0.03;;;;;;;18.46;100.00;100895.78;10456327;28;20013;-74
2022/07/25 20:11:19;;;;;;;0.10;0.10;;;;;;;18.36;100.00;100884.63;10456646;28;20468;-73
2022/07/25 20:16:20;;;;;;;0.00;0.00;;;;;;;18.27;100.00;100894.78;10457018;28;20029;-74
2022/07/25 20:21:20;;;;;;;0.10;0.10;;;;;;;18.26;100.00;100908.47;10457095;28;20391;-74
2022/07/25 20:26:21;;;;;;;0.10;0.10;;;;;;;18.27;100.00;100904.75;10456736;28;20264;-74
2022/07/25 20:31:23;;;;;;;0.10;0.10;;;;;;;18.25;100.00;100898.72;10456484;28;20044;-74
2022/07/25 20:36:23;;;;;;;0.10;0.10;;;;;;;18.19;100.00;100919.25;10454258;28;20120;-74
2022/07/25 20:41:23;;;;;;;0.10;0.10;;;;;;;18.08;100.00;100912.59;10453653;28;20469;-74
2022/07/25 20:46:24;;;;;;;0.00;0.00;;;;;;;18.02;100.00;100921.53;10455099;28;20024;-74
2022/07/25 20:51:24;;;;;;;0.10;0.10;;;;;;;17.94;100.00;100910.94;10455560;28;20611;-74
2022/07/25 20:56:24;;;;;;;0.07;0.07;;;;;;;17.89;100.00;100913.44;10464320;28;20020;-74
2022/07/25 21:01:25;;;;;;;0.10;0.10;;;;;;;17.87;100.00;100918.19;10454558;28;20033;-75
2022/07/25 21:06:25;;;;;;;0.10;0.10;;;;;;;17.88;100.00;100927.91;10453851;28;20033;-74
2022/07/25 21:11:25;;;;;;;0.00;0.00;;;;;;;17.83;100.00;100919.63;10453579;28;20017;-74
2022/07/25 21:16:26;;;;;;;0.10;0.10;;;;;;;17.77;100.00;100917.72;10453191;28;20032;-75
2022/07/25 21:21:26;;;;;;;0.10;0.10;;;;;;;17.68;100.00;100919.75;10453528;28;20033;-74
2022/07/25 21:26:26;;;;;;;0.00;0.00;;;;;;;17.61;100.00;100932.41;10467710;28;20638;-74
2022/07/25 21:31:27;;;;;;;0.00;0.00;;;;;;;17.54;100.00;100932.38;10453439;28;20021;-75
2022/07/25 21:36:28;;;;;;;0.10;0.10;;;;;;;17.58;100.00;100943.56;10451396;28;20024;-74
2022/07/25 21:41:29;;;;;;;0.10;0.10;;;;;;;17.67;100.00;100953.13;10452355;28;20048;-74
2022/07/25 21:46:30;;;;;;;0.10;0.10;;;;;;;17.87;100.00;100958.59;10452637;28;20049;-75
2022/07/25 21:51:30;;;;;;;0.10;0.10;;;;;;;18.02;100.00;100955.72;10451131;28;20040;-75
2022/07/25 21:56:32;;;;;;;0.10;0.10;;;;;;;18.11;100.00;100949.09;10445935;22;20411;-73
2022/07/25 22:01:32;;;;;;;0.00;0.00;;;;;;;18.14;100.00;100942.47;10410505;28;20739;-73
2022/07/25 22:06:33;;;;;;;0.00;0.00;;;;;;;18.16;100.00;100943.09;10408744;28;20229;-74
2022/07/25 22:11:33;;;;;;;0.10;0.10;;;;;;;18.17;100.00;100939.38;10448529;28;20395;-73
2022/07/25 22:16:34;;;;;;;0.10;0.10;;;;;;;18.16;100.00;100922.38;10450072;28;20021;-73
2022/07/25 22:21:34;;;;;;;0.10;0.10;;;;;;;18.19;100.00;100931.91;10451066;28;20558;-73
2022/07/25 22:26:35;;;;;;;0.10;0.10;;;;;;;18.17;100.00;100933.97;10409617;28;20105;-73
2022/07/25 22:31:37;;;;;;;0.00;0.00;;;;;;;18.18;100.00;100941.00;10409558;28;20053;-73
2022/07/25 22:36:38;;;;;;;0.10;0.10;;;;;;;18.16;100.00;100953.88;10408553;28;20021;-73
2022/07/25 22:41:38;;;;;;;0.10;0.10;;;;;;;17.97;100.00;100944.72;10420843;28;20021;-74
2022/07/25 22:46:38;;;;;;;0.10;0.10;;;;;;;17.77;100.00;100948.19;10447859;28;20028;-74
2022/07/25 22:51:39;;;;;;;0.10;0.10;;;;;;;17.67;100.00;100950.44;10421387;28;20025;-73
2022/07/25 22:56:39;;;;;;;0.00;0.00;;;;;;;17.59;100.00;100937.97;10424496;28;20028;-74
2022/07/25 23:01:39;;;;;;;0.10;0.10;;;;;;;17.53;100.00;100948.72;10443084;28;20100;-74